createdAt,value
2023-03-22T00:01:47.184Z,38.80
2023-03-22T00:04:13.993Z,52.20
2023-03-22T00:06:40.837Z,47.78
2023-03-22T00:09:07.431Z,45.40
2023-03-22T00:11:34.066Z,43.47
2023-03-22T00:14:01.006Z,46.40
2023-03-22T00:16:27.733Z,41.92
2023-03-22T00:18:54.362Z,41.75
2023-03-22T00:21:21.487Z,45.28
2023-03-22T00:23:48.107Z,47.80
2023-03-22T00:26:14.997Z,45.47
2023-03-22T00:28:42.271Z,47.95
2023-03-22T00:31:09.305Z,45.03
2023-03-22T00:33:36.501Z,44.10
2023-03-22T00:36:10.843Z,42.63
2023-03-22T00:38:43.723Z,48.72
2023-03-22T00:41:21.590Z,47.53
2023-03-22T00:43:48.785Z,47.63
2023-03-22T00:46:16.287Z,48.80
2023-03-22T00:48:43.100Z,52.08
2023-03-22T00:51:09.904Z,48.60
2023-03-22T00:53:36.928Z,48.03
2023-03-22T00:56:04.851Z,53.47
2023-03-22T00:58:31.519Z,50.53
2023-03-22T01:00:58.468Z,49.33
2023-03-22T01:03:25.161Z,49.72
2023-03-22T01:05:55.543Z,45.80
2023-03-22T01:08:23.424Z,46.03
2023-03-22T01:10:50.612Z,51.63
2023-03-22T01:13:18.110Z,45.35
2023-03-22T01:15:45.036Z,47.13
2023-03-22T01:18:11.721Z,46.33
2023-03-22T01:20:38.712Z,42.03
2023-03-22T01:23:06.175Z,49.42
2023-03-22T01:25:32.814Z,47.17
2023-03-22T01:28:02.236Z,48.65
2023-03-22T01:30:29.638Z,50.17
2023-03-22T01:32:56.275Z,53.53
2023-03-22T01:35:22.977Z,54.35
2023-03-22T01:37:49.672Z,55.17
2023-03-22T01:40:16.332Z,51.25
2023-03-22T01:42:42.947Z,47.83
2023-03-22T01:45:16.735Z,56.55
2023-03-22T01:48:14.463Z,47.08
2023-03-22T01:50:43.061Z,48.05
2023-03-22T01:53:10.483Z,52.85
2023-03-22T01:55:37.543Z,52.97
2023-03-22T01:58:04.301Z,58.75
2023-03-22T02:00:30.930Z,53.22
2023-03-22T02:02:57.546Z,57.17
2023-03-22T02:05:24.204Z,57.80
2023-03-22T02:07:50.840Z,55.40
2023-03-22T02:10:24.524Z,54.10
2023-03-22T02:13:09.201Z,53.20
2023-03-22T02:15:46.921Z,51.88
2023-03-22T02:18:18.716Z,53.28
2023-03-22T02:20:47.208Z,52.60
2023-03-22T02:24:02.643Z,56.30
2023-03-22T02:27:06.558Z,58.13
2023-03-22T02:29:39.179Z,57.28
2023-03-22T02:32:26.506Z,57.67
2023-03-22T02:35:18.107Z,61.60
2023-03-22T02:38:07.608Z,58.00
2023-03-22T02:40:50.773Z,59.88
2023-03-22T02:43:34.191Z,64.03
2023-03-22T02:46:15.888Z,64.22
2023-03-22T02:49:00.178Z,64.25
2023-03-22T02:51:32.896Z,62.75
2023-03-22T02:54:03.533Z,63.90
2023-03-22T02:56:33.158Z,66.38
2023-03-22T02:59:01.418Z,69.82
2023-03-22T03:01:35.363Z,74.35
2023-03-22T03:04:04.735Z,73.55
2023-03-22T03:06:33.836Z,75.70
2023-03-22T03:09:05.168Z,68.63
2023-03-22T03:11:32.420Z,75.78
2023-03-22T03:13:59.092Z,69.15
2023-03-22T03:16:27.829Z,70.55
2023-03-22T03:19:23.500Z,73.05
2023-03-22T03:22:01.368Z,85.50
2023-03-22T03:24:54.949Z,78.97
2023-03-22T03:27:32.179Z,80.88
2023-03-22T03:30:11.968Z,76.50
2023-03-22T03:32:42.022Z,73.32
2023-03-22T03:35:22.118Z,75.82
2023-03-22T03:37:57.840Z,78.72
2023-03-22T03:40:27.732Z,70.43
2023-03-22T03:42:55.507Z,81.10
2023-03-22T03:45:22.349Z,86.45
2023-03-22T03:47:55.465Z,79.32
2023-03-22T03:50:22.413Z,83.57
2023-03-22T03:52:49.075Z,80.38
2023-03-22T03:55:15.984Z,81.32
2023-03-22T03:57:42.600Z,81.88
2023-03-22T04:00:09.690Z,71.32
2023-03-22T04:02:36.395Z,83.85
2023-03-22T04:05:04.065Z,86.80
2023-03-22T04:07:30.672Z,88.95
2023-03-22T04:09:57.534Z,87.00
2023-03-22T04:12:24.223Z,100.18
2023-03-22T04:14:50.820Z,87.60
2023-03-22T04:17:17.434Z,89.50
2023-03-22T04:19:45.693Z,96.00
2023-03-22T04:22:14.763Z,91.88
2023-03-22T04:24:41.663Z,86.50
2023-03-22T04:27:08.515Z,102.38
2023-03-22T04:29:36.786Z,98.30
2023-03-22T04:32:03.683Z,102.30
2023-03-22T04:34:31.505Z,95.70
2023-03-22T04:36:58.131Z,95.75
2023-03-22T04:39:24.755Z,92.65
2023-03-22T04:41:51.371Z,94.10
2023-03-22T04:44:17.964Z,97.45
2023-03-22T04:46:44.918Z,95.82
2023-03-22T04:49:11.534Z,98.72
2023-03-22T04:51:38.403Z,103.18
2023-03-22T04:54:05.520Z,95.72
2023-03-22T04:56:32.138Z,98.65
2023-03-22T04:58:58.787Z,99.38
2023-03-22T05:01:25.654Z,90.20
2023-03-22T05:03:52.514Z,98.63
2023-03-22T05:06:19.402Z,98.45
2023-03-22T05:08:46.255Z,97.50
2023-03-22T05:11:15.095Z,96.18
2023-03-22T05:13:42.112Z,103.00
2023-03-22T05:16:09.763Z,104.18
2023-03-22T05:18:44.808Z,95.88
2023-03-22T05:21:16.626Z,102.55
2023-03-22T05:23:43.815Z,106.07
2023-03-22T05:26:10.909Z,102.75
2023-03-22T05:28:38.500Z,107.50
2023-03-22T05:31:05.736Z,105.90
2023-03-22T05:33:34.715Z,104.80
2023-03-22T05:36:01.341Z,110.85
2023-03-22T05:38:28.117Z,95.88
2023-03-22T05:40:54.834Z,99.25
2023-03-22T05:43:21.464Z,98.45
2023-03-22T05:45:49.059Z,104.95
2023-03-22T05:48:16.121Z,100.22
2023-03-22T05:50:43.055Z,91.88
2023-03-22T05:53:11.558Z,98.28
2023-03-22T05:55:38.224Z,104.90
2023-03-22T05:58:05.207Z,101.47
2023-03-22T06:00:35.725Z,98.65
2023-03-22T06:03:03.845Z,95.57
2023-03-22T06:05:31.645Z,90.32
2023-03-22T06:07:58.859Z,82.70
2023-03-22T06:10:27.310Z,84.18
2023-03-22T06:12:54.355Z,79.15
2023-03-22T06:15:20.996Z,73.50
2023-03-22T06:17:47.711Z,65.40
2023-03-22T06:20:15.490Z,62.42
2023-03-22T06:22:42.467Z,59.63
2023-03-22T06:25:10.168Z,60.22
2023-03-22T06:27:37.100Z,59.20
2023-03-22T06:30:03.932Z,61.80
2023-03-22T06:32:30.715Z,55.25
2023-03-22T06:34:57.360Z,61.20
2023-03-22T06:37:24.496Z,67.38
2023-03-22T06:39:52.123Z,65.70
2023-03-22T06:42:18.878Z,58.97
2023-03-22T06:44:45.641Z,68.53
2023-03-22T06:47:12.389Z,53.28
2023-03-22T06:49:39.349Z,49.67
2023-03-22T06:52:06.069Z,45.08
2023-03-22T06:54:32.702Z,40.20
2023-03-22T06:56:59.336Z,38.85
2023-03-22T06:59:26.269Z,37.60
2023-03-22T07:01:52.883Z,33.13
2023-03-22T07:04:20.121Z,37.28
2023-03-22T07:06:47.035Z,43.75
2023-03-22T07:09:13.683Z,39.67
2023-03-22T07:11:40.377Z,42.40
2023-03-22T07:14:07.261Z,39.13
2023-03-22T07:16:33.913Z,41.42
2023-03-22T07:19:00.808Z,42.72
2023-03-22T07:21:27.475Z,41.95
2023-03-22T07:23:55.418Z,40.10
2023-03-22T07:26:22.058Z,38.58
2023-03-22T07:28:48.685Z,35.58
2023-03-22T07:31:15.623Z,35.03
2023-03-22T07:33:42.490Z,39.08
2023-03-22T07:36:09.681Z,35.17
2023-03-22T07:38:36.427Z,29.50
2023-03-22T07:41:03.193Z,30.38
2023-03-22T07:43:29.858Z,27.35
2023-03-22T07:45:56.525Z,26.70
2023-03-22T07:48:23.554Z,27.42
2023-03-22T07:50:54.075Z,24.73
2023-03-22T07:53:20.761Z,21.88
2023-03-22T07:55:47.574Z,23.60
2023-03-22T07:58:14.942Z,23.88
2023-03-22T08:00:41.803Z,23.73
2023-03-22T08:03:09.924Z,19.38
2023-03-22T08:05:36.551Z,24.08
2023-03-22T08:08:03.224Z,24.08
2023-03-22T08:10:31.635Z,22.95
2023-03-22T08:12:58.721Z,24.25
2023-03-22T08:15:25.418Z,27.40
2023-03-22T08:17:52.438Z,21.33
2023-03-22T08:20:19.651Z,25.05
2023-03-22T08:22:46.274Z,24.17
2023-03-22T08:25:14.131Z,24.75
2023-03-22T08:27:41.064Z,23.95
2023-03-22T08:30:08.628Z,26.08
2023-03-22T08:32:35.678Z,24.10
2023-03-22T08:35:02.742Z,23.98
2023-03-22T08:37:29.352Z,24.38
2023-03-22T08:39:56.488Z,20.67
2023-03-22T08:42:23.141Z,24.17
2023-03-22T08:44:51.913Z,18.27
2023-03-22T08:47:18.793Z,21.05
2023-03-22T08:49:45.501Z,17.30
2023-03-22T08:52:12.474Z,21.27
2023-03-22T08:54:39.348Z,18.27
2023-03-22T08:57:09.473Z,17.20
2023-03-22T08:59:36.143Z,17.95
2023-03-22T09:02:02.835Z,16.42
2023-03-22T09:04:29.548Z,17.90
2023-03-22T09:06:56.411Z,15.65
2023-03-22T09:09:23.171Z,14.63
2023-03-22T09:11:49.850Z,13.23
2023-03-22T09:14:16.484Z,16.20
2023-03-22T09:16:43.071Z,11.98
2023-03-22T09:19:09.829Z,17.50
2023-03-22T09:21:36.926Z,16.10
2023-03-22T09:24:03.540Z,13.30
2023-03-22T09:26:30.239Z,14.25
2023-03-22T09:28:56.903Z,13.13
2023-03-22T09:31:23.551Z,19.73
2023-03-22T09:33:50.448Z,11.23
2023-03-22T09:36:17.042Z,11.48
2023-03-22T09:38:43.665Z,9.90
2023-03-22T09:41:17.328Z,17.77
2023-03-22T09:43:49.163Z,16.85
2023-03-22T09:46:18.557Z,13.15
2023-03-22T09:48:45.892Z,13.40
2023-03-22T09:51:26.111Z,13.25
2023-03-22T09:53:53.285Z,12.43
2023-03-22T09:56:27.626Z,16.50
2023-03-22T09:59:07.025Z,11.85
2023-03-22T10:01:59.880Z,12.85
2023-03-22T10:04:46.840Z,12.52
2023-03-22T10:07:19.363Z,9.57
2023-03-22T10:09:59.458Z,13.13
2023-03-22T10:12:46.736Z,13.32
2023-03-22T10:15:33.286Z,13.10
2023-03-22T10:18:00.475Z,11.60
2023-03-22T10:20:36.981Z,12.93
2023-03-22T10:23:05.195Z,11.75
2023-03-22T10:25:36.437Z,8.57
2023-03-22T10:28:06.539Z,12.35
2023-03-22T10:30:36.153Z,11.55
2023-03-22T10:33:11.962Z,9.27
2023-03-22T10:35:38.959Z,9.13
2023-03-22T10:38:19.339Z,9.05
2023-03-22T10:40:46.082Z,10.10
2023-03-22T10:43:30.367Z,6.93
2023-03-22T10:45:57.326Z,10.15
2023-03-22T10:48:35.591Z,11.38
2023-03-22T10:51:02.249Z,10.45
2023-03-22T10:53:45.609Z,11.00
2023-03-22T10:56:14.194Z,12.20
2023-03-22T10:58:40.811Z,10.20
2023-03-22T11:01:11.789Z,10.45
2023-03-22T11:03:40.781Z,10.75
2023-03-22T11:06:29.997Z,10.02
2023-03-22T11:09:01.553Z,9.70
2023-03-22T11:11:32.407Z,9.18
2023-03-22T11:14:07.109Z,6.72
2023-03-22T11:16:42.532Z,10.93
2023-03-22T11:19:14.166Z,8.25
2023-03-22T11:21:41.530Z,6.90
2023-03-22T11:24:08.387Z,6.50
2023-03-22T11:26:39.182Z,11.27
2023-03-22T11:29:16.543Z,6.15
2023-03-22T11:31:57.437Z,11.85
2023-03-22T11:34:29.776Z,6.40
2023-03-22T11:36:59.282Z,8.32
2023-03-22T11:39:29.670Z,8.57
2023-03-22T11:42:01.701Z,8.55
2023-03-22T11:44:29.003Z,4.25
2023-03-22T11:47:00.621Z,8.43
2023-03-22T11:49:35.730Z,7.30
2023-03-22T11:52:08.461Z,5.88
2023-03-22T11:54:35.571Z,7.25
2023-03-22T11:57:05.931Z,8.05
2023-03-22T11:59:39.989Z,6.10
2023-03-22T12:02:12.758Z,7.45
2023-03-22T12:04:39.716Z,7.35
2023-03-22T12:07:16.749Z,10.55
2023-03-22T12:09:48.648Z,4.85
2023-03-22T12:12:21.616Z,7.28
2023-03-22T12:14:59.891Z,7.82
2023-03-22T12:18:10.067Z,11.27
2023-03-22T12:20:40.122Z,7.88
2023-03-22T12:23:14.274Z,8.05
2023-03-22T12:25:41.133Z,9.60
2023-03-22T12:28:14.869Z,7.10
2023-03-22T12:30:49.160Z,6.22
2023-03-22T12:35:50.449Z,3.63
2023-03-22T12:38:39.384Z,3.50
2023-03-22T12:41:09.278Z,7.80
2023-03-22T12:43:40.077Z,5.15
2023-03-22T12:46:06.727Z,4.65
2023-03-22T12:48:38.294Z,4.65
2023-03-22T12:51:06.790Z,4.18
2023-03-22T12:53:54.914Z,2.65
2023-03-22T12:56:42.482Z,4.43
2023-03-22T12:59:17.260Z,5.07
2023-03-22T13:01:56.319Z,4.68
2023-03-22T13:04:25.884Z,3.72
2023-03-22T13:06:53.438Z,5.72
2023-03-22T13:09:29.395Z,5.97
2023-03-22T13:12:17.941Z,4.35
2023-03-22T13:14:51.287Z,3.13
2023-03-22T13:17:24.070Z,4.90
2023-03-22T13:19:59.382Z,7.00
2023-03-22T13:22:29.841Z,3.60
2023-03-22T13:25:08.487Z,3.58
2023-03-22T13:27:38.834Z,6.65
2023-03-22T13:30:21.630Z,5.00
2023-03-22T13:32:55.998Z,7.15
2023-03-22T13:35:28.373Z,3.58
2023-03-22T13:38:01.597Z,5.68
2023-03-22T13:40:36.966Z,6.50
2023-03-22T13:43:17.169Z,3.17
2023-03-22T13:46:18.178Z,4.22
2023-03-22T13:48:48.494Z,4.10
2023-03-22T13:51:22.849Z,9.80
2023-03-22T13:54:07.567Z,6.70
2023-03-22T13:59:24.318Z,5.88
2023-03-22T14:02:04.922Z,4.55
2023-03-22T14:04:56.411Z,4.43
2023-03-22T14:07:24.265Z,8.07
2023-03-22T14:10:12.722Z,8.52
2023-03-22T14:12:51.300Z,4.97
2023-03-22T14:15:23.375Z,4.55
2023-03-22T14:17:55.699Z,6.47
2023-03-22T14:20:24.982Z,3.28
